Baiyanghe, China

25°F / -4°C
Light Snow
Windchill: 17°F / -8°C
Humidity: 93%
Dew Point: 23°F / -5°C
Wind: WSW at 7 mph / 11 km/h
Pressure: 30.57 in / 1035 hPa (Steady)
Visibility: 1.2 miles / 2.0 kilometers
Clouds: Overcast (OVC) : 2000 ft / 609 m
Yesterday's Maximum: 28°F / -2°C
Yesterday's Minimum: 19°F / -7°C approx.
Yesterday's Heating Degree Days: 41 approx.
UV: 0 out of 16
Sunrise:8:57 AM CST
Sunset:7:46 PM CST
Moon Rise:11:09 PM CST
Moon Set:10:41 AM CST
Moon Phase Waning Gibbous
NOAA Weather Radio
No local feed.
METAR ZWWW 211930Z 25003MPS 2000 -SN OVC020 M04/M05 Q1035 NOSIG
As of: 3:30 AM CST on February 22, 2019
Observed at: Urumqi Diwopu, China

View Station's History

Local Satellite

Current Satellite Forecast
Region Default Local
No Yes

View Full Screen WunderMap

Forecast

Current Satellite Forecast

Features

Weather Apps

WunderRadio

Weather Underground Apps
Check out our wide variety of mobile and setup applications.

Weather Underground Applications

Top of Page

© Copyright 2019
The Weather Company, LLC